createdAt,value
2023-01-15T00:02:25.785Z,1.30
2023-01-15T00:05:11.569Z,1.27
2023-01-15T00:07:57.007Z,0.90
2023-01-15T00:10:42.326Z,0.90
2023-01-15T00:13:29.052Z,1.08
2023-01-15T00:16:20.522Z,0.85
2023-01-15T00:19:08.821Z,1.38
2023-01-15T00:21:54.319Z,0.93
2023-01-15T00:24:58.278Z,1.35
2023-01-15T00:27:50.080Z,0.57
2023-01-15T00:30:45.492Z,0.93
2023-01-15T00:33:31.250Z,0.90
2023-01-15T00:36:16.705Z,0.60
2023-01-15T00:39:02.060Z,1.00
2023-01-15T00:41:47.835Z,1.27
2023-01-15T00:44:34.155Z,0.93
2023-01-15T00:47:19.672Z,1.00
2023-01-15T00:50:10.518Z,0.60
2023-01-15T00:52:56.125Z,0.85
2023-01-15T00:55:41.549Z,1.52
2023-01-15T00:58:27.014Z,1.98
2023-01-15T01:01:12.377Z,1.25
2023-01-15T01:03:58.346Z,1.33
2023-01-15T01:06:43.749Z,1.13
2023-01-15T01:09:30.376Z,1.00
2023-01-15T01:12:15.948Z,1.65
2023-01-15T01:15:01.484Z,1.38
2023-01-15T01:17:47.186Z,0.82
2023-01-15T01:20:33.313Z,1.00
2023-01-15T01:23:19.774Z,0.68
2023-01-15T01:26:05.553Z,0.60
2023-01-15T01:28:53.113Z,0.98
2023-01-15T01:31:38.744Z,1.00
2023-01-15T01:34:24.389Z,0.70
2023-01-15T01:37:09.600Z,0.57
2023-01-15T01:39:55.573Z,0.60
2023-01-15T01:42:41.041Z,0.50
2023-01-15T01:45:33.566Z,0.63
2023-01-15T01:48:25.039Z,0.40
2023-01-15T01:51:11.035Z,0.83
2023-01-15T01:53:58.277Z,0.77
2023-01-15T01:56:44.308Z,0.30
2023-01-15T01:59:30.145Z,0.32
2023-01-15T02:02:18.512Z,1.23
2023-01-15T02:05:07.756Z,0.63
2023-01-15T02:07:53.406Z,0.30
2023-01-15T02:10:38.939Z,0.55
2023-01-15T02:13:32.844Z,0.60
2023-01-15T02:16:27.536Z,0.40
2023-01-15T02:19:30.470Z,0.75
2023-01-15T02:25:31.755Z,0.77
2023-01-15T02:28:48.769Z,0.50
2023-01-15T02:31:38.891Z,0.73
2023-01-15T02:34:29.382Z,0.80
2023-01-15T02:37:22.693Z,0.98
2023-01-15T02:40:11.137Z,0.65
2023-01-15T02:42:58.895Z,0.90
2023-01-15T02:45:49.197Z,0.40
2023-01-15T02:48:38.801Z,0.60
2023-01-15T02:51:28.795Z,0.75
2023-01-15T02:54:16.677Z,0.68
2023-01-15T02:57:05.198Z,0.80
2023-01-15T02:59:54.703Z,0.35
2023-01-15T03:02:45.478Z,1.08
2023-01-15T03:05:40.446Z,1.30
2023-01-15T03:08:27.904Z,0.88
2023-01-15T03:11:16.021Z,1.33
2023-01-15T03:14:21.932Z,0.73
2023-01-15T03:17:39.701Z,1.15
2023-01-15T03:20:28.019Z,0.70
2023-01-15T03:23:17.021Z,1.25
2023-01-15T03:26:03.083Z,0.85
2023-01-15T03:28:49.832Z,1.05
2023-01-15T03:31:36.787Z,0.88
2023-01-15T03:34:24.456Z,1.08
2023-01-15T03:37:10.393Z,1.05
2023-01-15T03:39:58.398Z,0.82
2023-01-15T03:43:14.262Z,0.68
2023-01-15T03:46:06.299Z,1.25
2023-01-15T03:49:07.484Z,0.73
2023-01-15T03:52:16.684Z,1.00
2023-01-15T03:55:08.282Z,1.27
2023-01-15T03:58:17.708Z,1.25
2023-01-15T04:01:11.000Z,0.77
2023-01-15T04:03:59.791Z,1.05
2023-01-15T04:06:47.992Z,1.23
2023-01-15T04:09:39.183Z,1.02
2023-01-15T04:12:28.203Z,1.50
2023-01-15T04:15:15.619Z,1.00
2023-01-15T04:18:02.227Z,0.75
2023-01-15T04:20:49.855Z,1.38
2023-01-15T04:23:35.429Z,0.77
2023-01-15T04:26:20.855Z,0.90
2023-01-15T04:29:06.378Z,0.57
2023-01-15T04:31:57.416Z,1.13
2023-01-15T04:34:42.605Z,0.68
2023-01-15T04:37:28.093Z,0.95
2023-01-15T04:40:33.081Z,0.98
2023-01-15T04:43:37.370Z,0.77
2023-01-15T04:46:24.924Z,0.98
2023-01-15T04:49:13.540Z,0.77
2023-01-15T04:51:59.140Z,1.25
2023-01-15T04:54:44.398Z,0.88
2023-01-15T04:57:29.869Z,0.93
2023-01-15T05:00:16.236Z,0.68
2023-01-15T05:03:01.878Z,0.95
2023-01-15T05:05:47.121Z,1.45
2023-01-15T05:08:32.920Z,0.82
2023-01-15T05:11:18.534Z,1.55
2023-01-15T05:14:04.261Z,1.55
2023-01-15T05:16:49.627Z,0.75
2023-01-15T05:19:34.914Z,1.30
2023-01-15T05:22:20.302Z,0.73
2023-01-15T05:25:06.306Z,0.90
2023-01-15T05:27:51.556Z,0.85
2023-01-15T05:30:37.004Z,0.85
2023-01-15T05:33:22.262Z,1.27
2023-01-15T05:36:13.294Z,1.10
2023-01-15T05:39:02.076Z,1.38
2023-01-15T05:41:51.434Z,1.67
2023-01-15T05:44:37.160Z,0.80
2023-01-15T05:47:22.542Z,0.70
2023-01-15T05:50:08.701Z,1.48
2023-01-15T05:52:54.304Z,0.40
2023-01-15T05:55:39.767Z,0.47
2023-01-15T05:58:25.122Z,0.70
2023-01-15T06:01:11.353Z,1.48
2023-01-15T06:04:01.469Z,0.88
2023-01-15T06:06:48.509Z,0.57
2023-01-15T06:09:33.919Z,1.75
2023-01-15T06:12:19.283Z,0.82
2023-01-15T06:15:05.025Z,0.80
2023-01-15T06:17:51.180Z,1.35
2023-01-15T06:20:37.829Z,0.63
2023-01-15T06:23:23.181Z,0.57
2023-01-15T06:26:16.005Z,0.90
2023-01-15T06:29:01.676Z,0.70
2023-01-15T06:31:47.756Z,0.90
2023-01-15T06:34:33.157Z,0.80
2023-01-15T06:37:18.583Z,1.10
2023-01-15T06:40:03.880Z,1.27
2023-01-15T06:43:09.128Z,1.08
2023-01-15T06:46:13.776Z,0.88
2023-01-15T06:48:59.284Z,0.77
2023-01-15T06:51:44.544Z,0.63
2023-01-15T06:54:30.527Z,0.90
2023-01-15T06:57:16.394Z,1.52
2023-01-15T07:00:01.929Z,1.17
2023-01-15T07:02:47.153Z,0.60
2023-01-15T07:05:32.527Z,0.50
2023-01-15T07:08:17.993Z,1.00
2023-01-15T07:11:05.384Z,0.50
2023-01-15T07:13:50.928Z,0.63
2023-01-15T07:16:37.806Z,0.80
2023-01-15T07:19:23.295Z,0.70
2023-01-15T07:22:10.417Z,0.80
2023-01-15T07:24:56.848Z,1.15
2023-01-15T07:27:42.802Z,0.70
2023-01-15T07:30:28.349Z,0.95
2023-01-15T07:33:13.909Z,0.80
2023-01-15T07:36:03.288Z,0.75
2023-01-15T07:38:49.070Z,0.95
2023-01-15T07:41:53.296Z,1.02
2023-01-15T07:44:57.776Z,0.95
2023-01-15T07:48:01.810Z,0.80
2023-01-15T07:50:47.355Z,0.70
2023-01-15T07:53:32.819Z,0.82
2023-01-15T07:56:18.159Z,0.80
2023-01-15T07:59:03.845Z,0.93
2023-01-15T08:01:49.259Z,0.70
2023-01-15T08:04:35.404Z,1.77
2023-01-15T08:07:21.075Z,1.55
2023-01-15T08:10:07.096Z,0.85
2023-01-15T08:13:11.084Z,1.20
2023-01-15T08:15:56.689Z,1.42
2023-01-15T08:18:42.382Z,1.17
2023-01-15T08:21:27.738Z,1.90
2023-01-15T08:24:13.069Z,1.30
2023-01-15T08:26:58.452Z,0.75
2023-01-15T08:29:43.908Z,1.30
2023-01-15T08:32:29.232Z,1.85
2023-01-15T08:35:14.976Z,1.33
2023-01-15T08:38:05.987Z,1.15
2023-01-15T08:41:03.670Z,1.60
2023-01-15T08:43:49.119Z,1.30
2023-01-15T08:46:34.280Z,2.45
2023-01-15T08:49:21.207Z,1.65
2023-01-15T08:52:07.107Z,1.23
2023-01-15T08:54:52.433Z,2.25
2023-01-15T08:57:38.702Z,2.15
2023-01-15T09:00:24.673Z,1.05
2023-01-15T09:03:10.517Z,1.73
2023-01-15T09:06:02.128Z,1.33
2023-01-15T09:08:47.750Z,1.58
2023-01-15T09:11:33.348Z,1.40
2023-01-15T09:14:57.479Z,2.03
2023-01-15T09:17:24.301Z,1.58
2023-01-15T09:20:13.265Z,2.20
2023-01-15T09:22:58.742Z,1.25
2023-01-15T09:26:06.289Z,1.50
2023-01-15T09:28:51.779Z,1.38
2023-01-15T09:31:37.130Z,1.27
2023-01-15T09:34:23.077Z,2.13
2023-01-15T09:37:08.597Z,1.60
2023-01-15T09:39:53.973Z,1.58
2023-01-15T09:42:58.288Z,1.60
2023-01-15T09:45:57.178Z,1.38
2023-01-15T09:49:04.448Z,1.40
2023-01-15T09:51:56.617Z,1.70
2023-01-15T09:54:54.721Z,1.25
2023-01-15T09:57:42.317Z,1.55
2023-01-15T10:00:33.827Z,1.52
2023-01-15T10:03:19.220Z,1.20
2023-01-15T10:06:21.894Z,1.10
2023-01-15T10:09:15.154Z,1.67
2023-01-15T10:12:31.322Z,1.30
2023-01-15T10:15:24.681Z,1.92
2023-01-15T10:18:22.879Z,1.73
2023-01-15T10:21:35.948Z,1.65
2023-01-15T10:24:26.536Z,1.30
2023-01-15T10:27:20.293Z,0.95
2023-01-15T10:30:14.005Z,0.90
2023-01-15T10:33:05.149Z,1.60
2023-01-15T10:36:09.743Z,1.23
2023-01-15T10:39:15.036Z,1.85
2023-01-15T10:42:37.853Z,1.02
2023-01-15T10:45:27.672Z,1.50
2023-01-15T10:48:27.159Z,1.92
2023-01-15T10:51:18.520Z,1.13
2023-01-15T10:54:21.398Z,1.63
2023-01-15T10:57:30.839Z,1.50
2023-01-15T11:00:17.234Z,1.48
2023-01-15T11:03:08.802Z,1.27
2023-01-15T11:05:54.298Z,1.10
2023-01-15T11:09:07.821Z,1.17
2023-01-15T11:11:59.607Z,1.00
2023-01-15T11:15:05.132Z,0.88
2023-01-15T11:18:09.369Z,1.60
2023-01-15T11:20:55.084Z,1.20
2023-01-15T11:23:40.560Z,1.90
2023-01-15T11:26:29.808Z,1.48
2023-01-15T11:29:44.131Z,1.05
2023-01-15T11:32:35.631Z,1.60
2023-01-15T11:35:20.863Z,1.43
2023-01-15T11:38:13.101Z,1.35
2023-01-15T11:41:04.950Z,1.30
2023-01-15T11:47:32.555Z,1.08
2023-01-15T11:50:37.802Z,2.13
2023-01-15T11:53:27.827Z,2.42
2023-01-15T11:56:20.344Z,1.80
2023-01-15T11:59:17.620Z,1.48
2023-01-15T12:02:25.901Z,1.85
2023-01-15T12:05:34.291Z,1.52
2023-01-15T12:08:37.446Z,1.50
2023-01-15T12:11:34.819Z,1.90
2023-01-15T12:14:32.525Z,1.15
2023-01-15T12:17:46.105Z,1.92
2023-01-15T12:20:40.732Z,1.58
2023-01-15T12:23:43.810Z,1.23
2023-01-15T12:26:34.203Z,1.67
2023-01-15T12:29:27.352Z,1.75
2023-01-15T12:32:18.640Z,1.17
2023-01-15T12:35:16.018Z,1.45
2023-01-15T12:38:26.443Z,1.30
2023-01-15T12:41:26.409Z,1.08
2023-01-15T12:44:30.305Z,1.52
2023-01-15T12:47:22.030Z,1.50
2023-01-15T12:50:45.297Z,2.53
2023-01-15T12:53:37.460Z,1.60
2023-01-15T12:59:24.488Z,1.70
2023-01-15T13:02:36.256Z,1.58
2023-01-15T13:05:23.293Z,1.35
2023-01-15T13:08:47.304Z,1.80
2023-01-15T13:11:33.285Z,2.22
2023-01-15T13:14:21.776Z,4.60
2023-01-15T13:17:24.282Z,12.52
2023-01-15T13:20:24.919Z,71.43
2023-01-15T13:23:31.865Z,121.68
2023-01-15T13:26:55.027Z,34.28
2023-01-15T13:29:52.096Z,40.03
2023-01-15T13:32:48.719Z,5.35
2023-01-15T13:35:41.138Z,2.53
2023-01-15T13:38:31.234Z,5.95
2023-01-15T13:41:40.938Z,2.90
2023-01-15T13:44:36.199Z,7.60
2023-01-15T13:47:29.017Z,2.72
2023-01-15T13:50:37.287Z,4.88
2023-01-15T13:53:38.610Z,4.97
2023-01-15T13:56:30.378Z,7.93
2023-01-15T13:59:41.238Z,9.07
2023-01-15T14:02:27.965Z,5.55
2023-01-15T14:05:33.888Z,10.45
2023-01-15T14:08:26.803Z,8.95
2023-01-15T14:11:30.830Z,7.65
2023-01-15T14:14:25.751Z,5.85
2023-01-15T14:17:32.213Z,5.20
2023-01-15T14:20:26.916Z,4.30
2023-01-15T14:23:21.731Z,3.97
2023-01-15T14:26:10.235Z,3.83
2023-01-15T14:29:22.971Z,4.28
2023-01-15T14:32:24.316Z,3.65
2023-01-15T14:35:18.714Z,2.67
2023-01-15T14:38:07.165Z,4.13
2023-01-15T14:41:02.290Z,2.30
2023-01-15T14:43:49.698Z,2.15
2023-01-15T14:46:38.811Z,2.88
2023-01-15T14:49:32.400Z,2.90
2023-01-15T14:52:23.739Z,3.00
2023-01-15T14:55:12.746Z,3.40
2023-01-15T14:58:05.744Z,3.30
2023-01-15T15:00:55.797Z,2.95
2023-01-15T15:04:07.249Z,3.85
2023-01-15T15:07:27.302Z,2.13
2023-01-15T15:10:33.940Z,1.90
2023-01-15T15:13:32.837Z,2.88
2023-01-15T15:16:27.410Z,2.30
2023-01-15T15:19:27.026Z,2.55
2023-01-15T15:22:16.954Z,3.00
2023-01-15T15:25:11.036Z,3.53
2023-01-15T15:28:09.619Z,2.45
2023-01-15T15:30:57.389Z,2.58
2023-01-15T15:33:42.955Z,2.60
2023-01-15T15:36:32.151Z,3.10
2023-01-15T15:39:29.062Z,3.30
2023-01-15T15:42:47.673Z,3.05
2023-01-15T15:45:52.205Z,2.85
2023-01-15T15:48:45.166Z,3.67
2023-01-15T15:51:35.400Z,3.70
2023-01-15T15:54:23.961Z,2.60
2023-01-15T15:57:17.837Z,4.68
2023-01-15T16:00:04.526Z,4.78
2023-01-15T16:02:51.662Z,7.55
2023-01-15T16:05:36.885Z,5.50
2023-01-15T16:08:22.427Z,8.73
2023-01-15T16:11:12.003Z,10.57
2023-01-15T16:14:00.343Z,6.05
2023-01-15T16:16:47.010Z,4.65
2023-01-15T16:19:32.660Z,5.07
2023-01-15T16:22:18.923Z,4.70
2023-01-15T16:25:05.476Z,6.35
2023-01-15T16:27:51.819Z,6.50
2023-01-15T16:30:37.579Z,7.20
2023-01-15T16:33:23.738Z,6.93
2023-01-15T16:36:09.418Z,4.22
2023-01-15T16:38:55.617Z,5.13
2023-01-15T16:41:42.597Z,5.00
2023-01-15T16:44:50.309Z,4.43
2023-01-15T16:47:36.812Z,5.03
2023-01-15T16:50:22.435Z,5.95
2023-01-15T16:53:36.549Z,4.30
2023-01-15T16:56:45.041Z,5.32
2023-01-15T16:59:30.512Z,6.18
2023-01-15T17:02:22.067Z,11.45
2023-01-15T17:05:17.558Z,5.95
2023-01-15T17:08:03.342Z,6.38
2023-01-15T17:10:54.199Z,9.18
2023-01-15T17:13:40.914Z,4.05
2023-01-15T17:16:26.803Z,4.28
2023-01-15T17:19:12.397Z,8.15
2023-01-15T17:21:57.796Z,5.25
2023-01-15T17:24:48.177Z,5.78
2023-01-15T17:27:33.583Z,6.45
2023-01-15T17:30:19.435Z,7.20
2023-01-15T17:33:06.948Z,9.57
2023-01-15T17:35:53.975Z,5.05
2023-01-15T17:38:39.368Z,7.65
2023-01-15T17:41:24.971Z,10.23
2023-01-15T17:44:14.852Z,7.35
2023-01-15T17:47:00.495Z,6.93
2023-01-15T17:49:45.850Z,8.23
2023-01-15T17:52:31.211Z,6.60
2023-01-15T17:55:39.195Z,6.72
2023-01-15T17:58:43.306Z,6.80
2023-01-15T18:01:52.027Z,7.13
2023-01-15T18:05:08.787Z,6.53
2023-01-15T18:07:56.694Z,6.25
2023-01-15T18:10:42.421Z,7.28
2023-01-15T18:13:27.857Z,9.00
2023-01-15T18:16:13.824Z,7.05
2023-01-15T18:18:59.196Z,9.52
2023-01-15T18:21:44.486Z,7.32
2023-01-15T18:24:29.992Z,7.60
2023-01-15T18:27:15.314Z,9.48
2023-01-15T18:30:00.742Z,9.55
2023-01-15T18:32:46.140Z,7.32
2023-01-15T18:35:31.918Z,6.80
2023-01-15T18:38:17.640Z,5.18
2023-01-15T18:41:34.620Z,7.80
2023-01-15T18:44:40.279Z,23.40
2023-01-15T18:47:26.999Z,9.93
2023-01-15T18:50:12.344Z,10.40
2023-01-15T18:52:58.095Z,19.80
2023-01-15T18:55:43.961Z,12.75
2023-01-15T18:58:29.534Z,9.88
2023-01-15T19:01:14.923Z,12.75
2023-01-15T19:04:00.674Z,13.52
2023-01-15T19:06:47.649Z,10.50
2023-01-15T19:09:34.229Z,14.45
2023-01-15T19:12:20.171Z,11.93
2023-01-15T19:15:25.834Z,11.18
2023-01-15T19:18:29.840Z,9.63
2023-01-15T19:21:17.895Z,7.60
2023-01-15T19:24:03.382Z,7.68
2023-01-15T19:26:49.114Z,8.18
2023-01-15T19:29:34.339Z,9.82
2023-01-15T19:32:19.888Z,9.43
2023-01-15T19:35:05.791Z,8.07
2023-01-15T19:37:53.353Z,15.75
2023-01-15T19:40:42.091Z,19.02
2023-01-15T19:43:46.055Z,22.25
2023-01-15T19:46:50.391Z,17.70
2023-01-15T19:49:55.932Z,15.63
2023-01-15T19:52:41.419Z,14.77
2023-01-15T19:55:29.703Z,12.30
2023-01-15T19:58:15.864Z,12.30
2023-01-15T20:01:01.904Z,11.35
2023-01-15T20:03:47.617Z,9.55
2023-01-15T20:06:32.950Z,9.85
2023-01-15T20:09:18.130Z,7.63
2023-01-15T20:12:22.068Z,8.65
2023-01-15T20:15:08.473Z,6.90
2023-01-15T20:17:54.176Z,8.35
2023-01-15T20:20:39.990Z,8.68
2023-01-15T20:23:25.589Z,12.55
2023-01-15T20:26:13.409Z,10.75
2023-01-15T20:28:59.064Z,10.57
2023-01-15T20:31:44.526Z,10.73
2023-01-15T20:34:36.315Z,12.48
2023-01-15T20:37:23.303Z,14.77
2023-01-15T20:40:09.620Z,16.60
2023-01-15T20:43:13.641Z,19.10
2023-01-15T20:46:15.864Z,15.27
2023-01-15T20:49:19.859Z,11.73
2023-01-15T20:52:05.537Z,12.90
2023-01-15T20:54:51.092Z,11.68
2023-01-15T20:57:38.506Z,10.82
2023-01-15T21:00:24.521Z,16.30
2023-01-15T21:03:11.923Z,16.60
2023-01-15T21:05:58.758Z,8.52
2023-01-15T21:08:46.043Z,24.63
2023-01-15T21:11:31.739Z,8.93
2023-01-15T21:14:17.183Z,11.77
2023-01-15T21:17:02.517Z,11.63
2023-01-15T21:19:47.937Z,17.33
2023-01-15T21:22:33.219Z,14.55
2023-01-15T21:25:18.800Z,26.88
2023-01-15T21:28:05.017Z,29.50
2023-01-15T21:30:50.387Z,14.02
2023-01-15T21:33:36.600Z,14.48
2023-01-15T21:36:22.799Z,15.40
2023-01-15T21:39:11.949Z,20.23
2023-01-15T21:42:15.865Z,14.25
2023-01-15T21:45:01.585Z,10.63
2023-01-15T21:47:47.231Z,13.15
2023-01-15T21:50:32.457Z,16.77
2023-01-15T21:53:17.809Z,16.85
2023-01-15T21:56:03.387Z,16.60
2023-01-15T21:58:49.169Z,15.48
2023-01-15T22:01:34.475Z,13.23
2023-01-15T22:04:19.855Z,15.52
2023-01-15T22:07:05.218Z,13.18
2023-01-15T22:09:51.018Z,15.57
2023-01-15T22:12:42.062Z,15.43
2023-01-15T22:15:28.244Z,14.52
2023-01-15T22:18:13.704Z,14.52
2023-01-15T22:21:05.898Z,10.60
2023-01-15T22:23:51.496Z,13.43
2023-01-15T22:26:37.991Z,14.90
2023-01-15T22:29:26.360Z,14.40
2023-01-15T22:32:14.363Z,13.98
2023-01-15T22:35:00.115Z,13.85
2023-01-15T22:37:45.504Z,11.88
2023-01-15T22:40:30.805Z,10.93
2023-01-15T22:43:16.295Z,11.43
2023-01-15T22:46:12.912Z,13.00
2023-01-15T22:48:58.418Z,9.98
2023-01-15T22:51:43.988Z,10.73
2023-01-15T22:54:29.624Z,11.18
2023-01-15T22:57:16.065Z,10.48
2023-01-15T23:00:02.386Z,11.32
2023-01-15T23:03:04.909Z,9.60
2023-01-15T23:05:50.505Z,11.38
2023-01-15T23:08:36.276Z,10.07
2023-01-15T23:11:21.898Z,10.18
2023-01-15T23:14:08.762Z,10.93
2023-01-15T23:16:54.391Z,9.60
2023-01-15T23:19:39.666Z,7.28
2023-01-15T23:22:25.106Z,8.95
2023-01-15T23:25:10.468Z,9.30
2023-01-15T23:27:55.873Z,10.60
2023-01-15T23:30:41.215Z,7.60
2023-01-15T23:33:26.899Z,7.53
2023-01-15T23:36:12.557Z,7.43
2023-01-15T23:38:57.850Z,8.15
2023-01-15T23:42:01.716Z,7.50
2023-01-15T23:45:05.762Z,7.95
2023-01-15T23:47:51.255Z,7.95
2023-01-15T23:50:36.753Z,6.78
2023-01-15T23:53:22.136Z,6.00
2023-01-15T23:56:08.047Z,8.02
2023-01-15T23:58:53.535Z,7.15
